Time;durP1;ratioP1;P1;durP2;ratioP2;P2;SDS_P1;SDS_P2;PMS_P1;PMS_P2;Temp;Humidity;BMP_temperature;BMP_pressure;BME280_temperature;BME280_humidity;BME280_pressure;Samples;Min_cycle;Max_cycle;Signal;HPM_P1;HPM_P2
2021/07/29 00:00:38;;;;;;;41.63;27.80;;;23.60;94.30;;;;;;5037405;28;20022;-82
2021/07/29 00:03:05;;;;;;;34.78;25.70;;;23.70;94.20;;;;;;5036931;28;20487;-81
2021/07/29 00:05:32;;;;;;;33.05;22.25;;;23.70;94.10;;;;;;5035679;28;20021;-81
2021/07/29 00:07:58;;;;;;;31.63;21.58;;;23.80;93.90;;;;;;5037166;28;20057;-80
2021/07/29 00:10:25;;;;;;;28.33;20.27;;;23.90;93.70;;;;;;5035457;28;20033;-80
2021/07/29 00:12:51;;;;;;;30.92;19.65;;;23.90;93.50;;;;;;5035711;28;20032;-80
2021/07/29 00:15:17;;;;;;;25.40;19.10;;;24.00;93.30;;;;;;5035952;28;20025;-81
2021/07/29 00:20:17;;;;;;;26.27;19.23;;;24.00;92.80;;;;;;5036910;28;20017;-81
2021/07/29 00:22:44;;;;;;;26.30;19.50;;;24.10;92.70;;;;;;5037146;28;20100;-81
2021/07/29 00:25:13;;;;;;;32.83;20.52;;;24.10;92.60;;;;;;5035659;28;20033;-80
2021/07/29 00:27:40;;;;;;;32.75;20.85;;;24.10;92.40;;;;;;5035875;28;20025;-81
2021/07/29 00:30:07;;;;;;;28.45;20.92;;;24.10;92.40;;;;;;5036747;28;20351;-81
2021/07/29 00:32:33;;;;;;;32.92;21.45;;;24.20;92.30;;;;;;5037224;28;20021;-80
2021/07/29 00:34:58;;;;;;;30.35;21.30;;;24.20;92.20;;;;;;5035399;28;20418;-80
2021/07/29 00:37:24;;;;;;;31.55;20.23;;;24.20;92.10;;;;;;5036757;28;20430;-80
2021/07/29 00:39:50;;;;;;;26.33;19.85;;;24.20;92.00;;;;;;5035551;28;20471;-79
2021/07/29 00:42:16;;;;;;;28.63;19.75;;;24.20;91.90;;;;;;5036645;28;20455;-80
2021/07/29 00:44:42;;;;;;;27.20;19.35;;;24.20;91.80;;;;;;5036611;28;20033;-80
2021/07/29 00:47:07;;;;;;;26.88;19.52;;;24.20;91.70;;;;;;5035440;28;20476;-80
2021/07/29 00:49:33;;;;;;;25.88;19.15;;;24.20;91.70;;;;;;5035687;28;20022;-81
2021/07/29 00:52:00;;;;;;;31.35;20.55;;;24.10;91.60;;;;;;5034558;28;20037;-81
2021/07/29 00:54:29;;;;;;;26.08;19.17;;;24.20;91.60;;;;;;5034776;28;20022;-81
2021/07/29 00:56:57;;;;;;;26.33;19.27;;;24.10;91.50;;;;;;5035251;28;20023;-70
2021/07/29 00:59:23;;;;;;;24.52;19.55;;;24.10;91.50;;;;;;5034829;28;20022;-77
2021/07/29 01:01:48;;;;;;;26.10;19.65;;;24.00;91.50;;;;;;5034615;28;20393;-72
2021/07/29 01:04:14;;;;;;;24.65;18.45;;;24.00;91.60;;;;;;5034331;28;20081;-72
2021/07/29 01:06:40;;;;;;;26.83;18.98;;;24.00;91.60;;;;;;5034363;28;20018;-72
2021/07/29 01:09:10;;;;;;;24.90;18.52;;;24.00;91.70;;;;;;5034653;28;20072;-71
2021/07/29 01:11:43;;;;;;;25.35;18.80;;;24.00;91.60;;;;;;5034760;28;20355;-72
2021/07/29 01:14:10;;;;;;;26.02;18.00;;;24.00;91.50;;;;;;5035875;28;20388;-72
2021/07/29 01:16:36;;;;;;;26.05;17.77;;;24.00;91.40;;;;;;5034587;28;20029;-71
2021/07/29 01:19:03;;;;;;;23.30;17.83;;;24.00;91.30;;;;;;5034451;28;20021;-72
2021/07/29 01:21:30;;;;;;;21.63;17.25;;;24.00;91.20;;;;;;5035299;28;20072;-72
2021/07/29 01:23:57;;;;;;;29.23;18.00;;;24.00;91.20;;;;;;5034262;28;20030;-71
2021/07/29 01:26:23;;;;;;;27.98;17.27;;;24.00;91.10;;;;;;5034613;28;20333;-71
2021/07/29 01:28:49;;;;;;;27.15;17.63;;;24.00;91.10;;;;;;5034467;28;20120;-72
2021/07/29 01:31:16;;;;;;;24.42;17.70;;;24.00;91.00;;;;;;5034083;28;20025;-72
2021/07/29 01:33:42;;;;;;;27.15;16.65;;;24.00;91.00;;;;;;5033804;28;20463;-72
2021/07/29 01:36:08;;;;;;;23.73;17.63;;;24.00;90.90;;;;;;5034274;28;20032;-72
2021/07/29 01:38:34;;;;;;;23.10;17.90;;;24.00;90.90;;;;;;5035398;28;20025;-72
2021/07/29 01:41:01;;;;;;;26.15;17.55;;;24.00;90.80;;;;;;5035364;28;20029;-72
2021/07/29 01:43:28;;;;;;;24.25;17.42;;;24.00;90.80;;;;;;5035261;28;20025;-72
2021/07/29 01:45:53;;;;;;;26.30;18.55;;;23.90;90.80;;;;;;5033976;28;20160;-72
2021/07/29 01:48:19;;;;;;;22.45;18.35;;;23.90;90.80;;;;;;5033588;28;20104;-72
2021/07/29 01:50:45;;;;;;;26.25;18.25;;;23.90;90.80;;;;;;5033834;28;20096;-72
2021/07/29 01:53:11;;;;;;;26.20;17.85;;;23.90;90.80;;;;;;5033625;28;20021;-72
2021/07/29 01:55:42;;;;;;;26.95;18.38;;;23.90;90.80;;;;;;5033955;28;20026;-72
2021/07/29 01:58:11;;;;;;;21.23;16.27;;;23.90;90.80;;;;;;5033668;28;20028;-72
2021/07/29 02:00:37;;;;;;;24.58;17.30;;;23.90;90.70;;;;;;5035000;28;20022;-72
2021/07/29 02:03:03;;;;;;;24.70;17.25;;;23.90;90.60;;;;;;5032915;28;20517;-72
2021/07/29 02:05:30;;;;;;;24.65;16.92;;;23.90;90.90;;;;;;5032885;28;20037;-72
2021/07/29 02:07:56;;;;;;;27.17;17.70;;;23.90;90.60;;;;;;5033819;28;20072;-72
2021/07/29 02:10:22;;;;;;;23.95;17.35;;;23.80;90.60;;;;;;5035226;28;20072;-84
2021/07/29 02:12:48;;;;;;;24.60;17.83;;;23.80;90.60;;;;;;5033617;28;20018;-80
2021/07/29 02:15:13;;;;;;;24.48;17.35;;;23.80;90.60;;;;;;5032488;28;20038;-81
2021/07/29 02:17:39;;;;;;;27.13;17.92;;;23.80;90.60;;;;;;5043875;28;20375;-79
2021/07/29 02:20:05;;;;;;;27.35;16.88;;;23.80;90.70;;;;;;5048945;28;20021;-80
2021/07/29 02:22:31;;;;;;;23.70;16.50;;;23.70;91.00;;;;;;5032597;28;20394;-80
2021/07/29 02:24:57;;;;;;;29.02;18.42;;;23.70;90.70;;;;;;5031072;28;20034;-80
2021/07/29 02:27:25;;;;;;;28.42;18.15;;;23.60;90.80;;;;;;5030921;28;20022;-81
2021/07/29 02:29:51;;;;;;;25.15;17.83;;;23.50;90.90;;;;;;5031131;28;20026;-81
2021/07/29 02:32:17;;;;;;;28.40;18.25;;;23.50;91.10;;;;;;5031068;28;20451;-81
2021/07/29 02:34:43;;;;;;;27.73;18.98;;;23.40;91.20;;;;;;5031009;28;20033;-81
2021/07/29 02:37:09;;;;;;;35.97;20.23;;;23.40;91.30;;;;;;5031168;28;20038;-81
2021/07/29 02:39:36;;;;;;;47.08;23.40;;;23.40;91.30;;;;;;5032860;28;20452;-81
2021/07/29 02:42:02;;;;;;;41.20;21.55;;;23.40;91.30;;;;;;5032836;28;20022;-80
2021/07/29 02:44:28;;;;;;;31.88;20.05;;;23.40;91.40;;;;;;5032155;28;20021;-81
2021/07/29 02:46:54;;;;;;;31.00;19.63;;;23.40;91.50;;;;;;5033022;28;20021;-81
2021/07/29 02:49:20;;;;;;;25.48;18.40;;;23.40;91.50;;;;;;5032717;28;20025;-80
2021/07/29 02:51:45;;;;;;;31.45;18.13;;;23.40;91.60;;;;;;5033975;28;20028;-80
2021/07/29 02:54:11;;;;;;;27.88;17.95;;;23.50;91.50;;;;;;5032609;28;20053;-80
2021/07/29 02:56:37;;;;;;;22.83;15.75;;;23.50;91.50;;;;;;5032897;28;20063;-80
2021/07/29 02:59:02;;;;;;;22.35;16.42;;;23.50;91.40;;;;;;5032813;28;20354;-80
2021/07/29 03:01:28;;;;;;;25.05;17.95;;;23.60;91.40;;;;;;5032583;28;20420;-80
2021/07/29 03:03:54;;;;;;;24.27;16.45;;;23.60;91.30;;;;;;5032520;28;20056;-81
2021/07/29 03:06:20;;;;;;;26.60;15.63;;;23.70;91.30;;;;;;5032752;28;20056;-80
2021/07/29 03:08:46;;;;;;;25.27;16.42;;;23.70;91.10;;;;;;5032523;28;20108;-80
2021/07/29 03:11:12;;;;;;;24.45;17.02;;;23.80;91.10;;;;;;5032568;28;20034;-81
2021/07/29 03:13:37;;;;;;;26.00;17.27;;;23.90;91.10;;;;;;5032345;28;20029;-80
2021/07/29 03:16:04;;;;;;;22.50;16.77;;;24.10;91.00;;;;;;5031936;28;20022;-79
2021/07/29 03:18:30;;;;;;;24.50;16.98;;;24.30;90.70;;;;;;5032340;28;20022;-81
2021/07/29 03:20:56;;;;;;;24.67;18.05;;;24.40;90.30;;;;;;5032497;28;20074;-81
2021/07/29 03:23:22;;;;;;;25.50;17.65;;;24.50;90.10;;;;;;5032322;28;20374;-81
2021/07/29 03:25:53;;;;;;;30.35;18.75;;;24.70;89.80;;;;;;5033490;28;20022;-80
2021/07/29 03:28:19;;;;;;;29.38;20.73;;;24.80;89.20;;;;;;5032398;28;20025;-80
2021/07/29 03:30:46;;;;;;;29.17;19.55;;;25.00;88.30;;;;;;5032034;28;20531;-80
2021/07/29 03:33:12;;;;;;;31.88;21.45;;;25.20;87.30;;;;;;5032182;28;20107;-80
2021/07/29 03:35:41;;;;;;;28.77;19.58;;;25.20;86.70;;;;;;5031919;28;20029;-80
2021/07/29 03:38:07;;;;;;;28.33;18.85;;;25.40;86.20;;;;;;5032594;28;20108;-80
2021/07/29 03:40:34;;;;;;;31.25;20.38;;;25.70;85.40;;;;;;5031877;28;20028;-80
2021/07/29 03:43:04;;;;;;;30.02;19.55;;;25.90;84.40;;;;;;5032824;28;20021;-80
2021/07/29 03:45:31;;;;;;;21.50;18.05;;;26.20;83.50;;;;;;5032021;28;20021;-81
2021/07/29 03:47:58;;;;;;;23.50;18.13;;;26.50;82.50;;;;;;5033402;28;20444;-80
2021/07/29 03:50:23;;;;;;;26.25;17.73;;;26.70;81.40;;;;;;5032260;28;20048;-81
2021/07/29 03:52:49;;;;;;;26.05;17.52;;;26.90;80.90;;;;;;5031987;28;20404;-81
2021/07/29 03:55:15;;;;;;;25.13;18.30;;;27.10;79.50;;;;;;5032112;28;20033;-81
2021/07/29 03:57:41;;;;;;;21.48;17.42;;;27.30;79.10;;;;;;5031995;28;20390;-81
2021/07/29 04:00:08;;;;;;;27.85;18.05;;;27.50;78.40;;;;;;5032323;28;20021;-80
2021/07/29 04:02:34;;;;;;;25.90;18.20;;;27.80;77.50;;;;;;5032516;28;20086;-81
2021/07/29 04:05:01;;;;;;;28.45;18.98;;;28.10;76.80;;;;;;5031869;28;20160;-80
2021/07/29 04:07:26;;;;;;;27.77;18.80;;;28.30;75.70;;;;;;5031982;28;20029;-80
2021/07/29 04:09:52;;;;;;;26.15;17.42;;;28.60;75.20;;;;;;5032118;28;20447;-81
2021/07/29 04:12:19;;;;;;;26.98;16.75;;;29.00;74.40;;;;;;5031730;28;20029;-81
2021/07/29 04:14:44;;;;;;;24.63;16.40;;;29.30;73.30;;;;;;5032552;28;20030;-82
2021/07/29 04:17:10;;;;;;;23.10;16.00;;;29.50;72.60;;;;;;5031746;28;20029;-81
2021/07/29 04:19:36;;;;;;;23.15;15.68;;;29.70;71.80;;;;;;5031342;28;20017;-81
2021/07/29 04:22:05;;;;;;;21.15;15.73;;;29.80;70.90;;;;;;5031135;28;20021;-75
2021/07/29 04:24:31;;;;;;;24.50;15.63;;;30.00;70.10;;;;;;5031079;28;20021;-77
2021/07/29 04:27:04;;;;;;;20.73;15.32;;;30.20;69.40;;;;;;5027248;28;20476;-74
2021/07/29 04:29:34;;;;;;;23.20;14.73;;;30.30;68.50;;;;;;5023875;28;20017;-84
2021/07/29 04:32:01;;;;;;;22.63;14.57;;;30.50;68.00;;;;;;5035075;28;20033;-84
2021/07/29 04:34:27;;;;;;;21.10;15.65;;;30.60;67.50;;;;;;5065723;28;20033;-84
2021/07/29 04:36:53;;;;;;;26.55;14.77;;;30.80;67.10;;;;;;5030444;28;20097;-83
2021/07/29 04:39:19;;;;;;;21.25;15.25;;;31.00;66.80;;;;;;5032784;28;20109;-84
2021/07/29 04:41:45;;;;;;;25.55;15.90;;;31.30;66.10;;;;;;5034433;28;20047;-83
2021/07/29 04:44:13;;;;;;;23.73;15.60;;;31.60;65.40;;;;;;5034239;28;20026;-77
2021/07/29 04:46:41;;;;;;;21.38;15.95;;;31.80;64.70;;;;;;5036047;28;20029;-78
2021/07/29 04:49:08;;;;;;;20.80;14.88;;;32.00;64.00;;;;;;5041871;28;20013;-78
2021/07/29 04:51:37;;;;;;;29.40;17.88;;;32.30;63.40;;;;;;5034783;28;20407;-76
2021/07/29 04:54:04;;;;;;;31.75;20.70;;;32.60;62.90;;;;;;5035496;28;20452;-75
2021/07/29 04:56:31;;;;;;;28.83;21.15;;;32.90;62.00;;;;;;5034394;28;20529;-75
2021/07/29 04:58:57;;;;;;;39.33;20.77;;;33.10;61.10;;;;;;5055571;28;20067;-78
2021/07/29 05:01:22;;;;;;;29.02;21.23;;;33.20;61.00;;;;;;5050788;28;20013;-83
2021/07/29 05:03:48;;;;;;;26.13;18.75;;;33.30;60.60;;;;;;5035855;28;20041;-78
2021/07/29 05:06:14;;;;;;;30.45;18.95;;;33.40;60.60;;;;;;5036504;28;20033;-74
2021/07/29 05:08:43;;;;;;;28.08;19.17;;;33.50;60.20;;;;;;5042242;28;20033;-75
2021/07/29 05:11:10;;;;;;;28.23;18.95;;;33.80;59.80;;;;;;5020992;28;20345;-74
2021/07/29 05:13:38;;;;;;;26.88;17.80;;;34.10;59.40;;;;;;5034631;28;20196;-72
2021/07/29 05:16:08;;;;;;;26.52;17.40;;;34.20;59.00;;;;;;5034020;28;20128;-76
2021/07/29 05:18:34;;;;;;;27.23;17.90;;;34.20;58.60;;;;;;5039908;28;20021;-73
2021/07/29 05:21:08;;;;;;;26.75;17.88;;;34.30;58.50;;;;;;5052299;28;20096;-77
2021/07/29 05:23:35;;;;;;;22.73;16.23;;;34.50;58.10;;;;;;5054601;28;20408;-77
2021/07/29 05:26:01;;;;;;;24.77;17.02;;;34.70;57.90;;;;;;5053973;28;20060;-77
2021/07/29 05:28:27;;;;;;;28.25;17.40;;;34.90;57.40;;;;;;5037924;28;20024;-77
2021/07/29 05:30:53;;;;;;;35.42;19.80;;;35.10;57.10;;;;;;5030967;28;20022;-72
2021/07/29 05:33:19;;;;;;;30.98;18.85;;;35.20;56.40;;;;;;5033859;28;20021;-74
2021/07/29 05:35:45;;;;;;;33.03;19.73;;;35.10;56.20;;;;;;5037752;28;20399;-76
2021/07/29 05:38:11;;;;;;;24.63;18.67;;;35.30;55.90;;;;;;5041080;28;20021;-75
2021/07/29 05:40:37;;;;;;;25.35;18.58;;;35.50;55.90;;;;;;5034256;28;20021;-71
2021/07/29 05:43:03;;;;;;;32.20;18.45;;;35.50;55.70;;;;;;5034847;28;20017;-75
2021/07/29 05:45:29;;;;;;;25.85;17.58;;;35.60;55.70;;;;;;5039977;28;20104;-77
2021/07/29 05:47:55;;;;;;;31.48;18.73;;;35.80;55.70;;;;;;5038559;28;20030;-78
2021/07/29 05:50:24;;;;;;;35.22;19.90;;;36.00;55.70;;;;;;5033843;28;20022;-77
2021/07/29 05:52:50;;;;;;;29.40;19.25;;;36.10;55.20;;;;;;5036771;28;20028;-77
2021/07/29 05:55:16;;;;;;;33.40;19.40;;;36.20;55.00;;;;;;5044191;28;20068;-77
2021/07/29 05:57:41;;;;;;;34.70;21.30;;;36.50;54.60;;;;;;5053427;28;20485;-77
2021/07/29 06:00:09;;;;;;;30.60;19.98;;;37.00;54.00;;;;;;5051875;28;20107;-78
2021/07/29 06:02:35;;;;;;;34.55;21.02;;;37.30;53.10;;;;;;5023073;28;20061;-79
2021/07/29 06:05:01;;;;;;;36.53;20.67;;;37.60;52.80;;;;;;5034079;28;20140;-75
2021/07/29 06:07:28;;;;;;;30.45;19.90;;;37.80;52.60;;;;;;5033366;28;20060;-73
2021/07/29 06:09:54;;;;;;;31.30;19.38;;;37.90;51.80;;;;;;5028590;28;20087;-71
2021/07/29 06:12:24;;;;;;;28.83;18.92;;;37.90;51.60;;;;;;5019632;28;20051;-71
2021/07/29 06:14:52;;;;;;;27.85;19.25;;;38.20;51.90;;;;;;5032237;28;20036;-69
2021/07/29 06:17:22;;;;;;;33.47;19.25;;;38.40;51.40;;;;;;5031626;28;20582;-70
2021/07/29 06:19:47;;;;;;;30.27;20.42;;;38.60;51.20;;;;;;5032535;28;20022;-69
2021/07/29 06:22:13;;;;;;;31.67;21.00;;;38.80;50.80;;;;;;5031794;28;20504;-71
2021/07/29 06:24:38;;;;;;;33.03;18.70;;;38.70;50.70;;;;;;5031711;28;20094;-70
2021/07/29 06:27:04;;;;;;;35.00;21.13;;;38.70;51.30;;;;;;5033187;28;20083;-70
2021/07/29 06:29:30;;;;;;;42.83;29.23;;;38.70;50.90;;;;;;5031417;28;20067;-71
2021/07/29 06:31:55;;;;;;;44.40;27.10;;;38.80;50.90;;;;;;5032427;28;20352;-69
2021/07/29 06:34:21;;;;;;;50.13;34.63;;;39.00;51.30;;;;;;5032776;28;20029;-71
2021/07/29 06:36:47;;;;;;;46.65;31.63;;;39.00;50.90;;;;;;5032987;28;20116;-70
2021/07/29 06:39:12;;;;;;;47.60;30.92;;;39.00;50.90;;;;;;5034068;28;20440;-70
2021/07/29 06:41:39;;;;;;;48.25;30.35;;;39.00;50.70;;;;;;5032812;28;20451;-70
2021/07/29 06:44:08;;;;;;;48.25;30.85;;;39.20;50.70;;;;;;5033728;28;20079;-69
2021/07/29 06:46:37;;;;;;;55.17;29.77;;;39.30;51.10;;;;;;5032810;28;20024;-70
2021/07/29 06:49:04;;;;;;;44.40;28.83;;;39.30;50.40;;;;;;5034029;28;20022;-70
2021/07/29 06:51:30;;;;;;;38.70;27.73;;;39.20;50.70;;;;;;5032057;28;20021;-70
2021/07/29 06:53:56;;;;;;;46.75;30.10;;;39.20;51.20;;;;;;5032526;28;20033;-69
2021/07/29 06:56:21;;;;;;;46.92;28.88;;;39.20;50.40;;;;;;5032714;28;20029;-69
2021/07/29 06:58:47;;;;;;;44.67;28.23;;;39.10;50.10;;;;;;5032448;28;20163;-70
2021/07/29 07:01:12;;;;;;;37.28;28.15;;;39.10;50.00;;;;;;5033696;28;20064;-70
2021/07/29 07:03:38;;;;;;;47.28;29.48;;;39.00;50.10;;;;;;5033469;28;20126;-70
2021/07/29 07:06:06;;;;;;;41.25;30.92;;;38.90;50.00;;;;;;5033549;28;20036;-70
2021/07/29 07:08:33;;;;;;;40.42;33.85;;;39.00;49.90;;;;;;5032674;28;20379;-70
2021/07/29 07:10:58;;;;;;;48.42;40.80;;;39.00;50.00;;;;;;5032274;28;20021;-70
2021/07/29 07:13:25;;;;;;;41.83;27.30;;;39.10;50.90;;;;;;5032270;28;20025;-69
2021/07/29 07:15:51;;;;;;;34.55;30.83;;;39.20;49.60;;;;;;5032390;28;20452;-70
2021/07/29 07:18:17;;;;;;;41.63;32.25;;;39.40;49.20;;;;;;5032607;28;20022;-70
2021/07/29 07:20:42;;;;;;;36.20;25.67;;;39.60;49.20;;;;;;5033968;28;20027;-70
2021/07/29 07:23:08;;;;;;;33.28;24.02;;;39.70;48.90;;;;;;5033581;28;20079;-70
2021/07/29 07:25:37;;;;;;;32.08;22.13;;;39.60;48.70;;;;;;5033566;28;20021;-70
2021/07/29 07:28:03;;;;;;;32.10;21.20;;;39.70;48.40;;;;;;5033499;28;20024;-69
2021/07/29 07:30:31;;;;;;;38.50;19.98;;;39.70;48.60;;;;;;5033725;28;20096;-70
2021/07/29 07:32:57;;;;;;;32.67;22.05;;;39.80;48.60;;;;;;5033640;28;20025;-70
2021/07/29 07:35:23;;;;;;;31.83;20.45;;;39.70;48.60;;;;;;5033500;28;20029;-69
2021/07/29 07:37:48;;;;;;;40.17;21.00;;;39.40;48.70;;;;;;5032377;28;20038;-70
2021/07/29 07:40:16;;;;;;;31.73;19.48;;;39.50;48.60;;;;;;5033398;28;20022;-70
2021/07/29 07:42:43;;;;;;;32.38;18.77;;;39.50;48.70;;;;;;5033248;28;20033;-70
2021/07/29 07:45:09;;;;;;;28.55;17.45;;;39.60;48.90;;;;;;5031820;28;20029;-70
2021/07/29 07:47:35;;;;;;;34.50;18.08;;;39.80;48.60;;;;;;5033250;28;20036;-70
2021/07/29 07:50:02;;;;;;;31.50;17.33;;;40.00;48.50;;;;;;5033330;28;20026;-70
2021/07/29 07:52:28;;;;;;;48.88;29.38;;;40.10;48.50;;;;;;5033198;28;20014;-70
2021/07/29 07:54:53;;;;;;;24.23;16.92;;;40.10;48.50;;;;;;5032041;28;20364;-70
2021/07/29 07:57:19;;;;;;;24.50;12.63;;;40.10;48.40;;;;;;5033236;28;20112;-70
2021/07/29 07:59:45;;;;;;;18.90;11.50;;;40.30;48.20;;;;;;5033174;28;20075;-70
2021/07/29 08:02:12;;;;;;;20.77;10.90;;;40.40;47.00;;;;;;5034186;28;20394;-70
2021/07/29 08:04:37;;;;;;;17.75;9.45;;;40.20;46.20;;;;;;5036945;28;20045;-70
2021/07/29 08:07:05;;;;;;;15.57;9.27;;;39.90;45.40;;;;;;5037311;28;20026;-70
2021/07/29 08:09:30;;;;;;;13.98;8.20;;;39.60;46.20;;;;;;5035506;28;20116;-70
2021/07/29 08:11:56;;;;;;;16.45;8.43;;;39.40;45.90;;;;;;5036680;28;20392;-70
2021/07/29 08:14:22;;;;;;;17.42;8.93;;;39.10;46.10;;;;;;5036621;28;20029;-70
2021/07/29 08:16:47;;;;;;;18.73;10.15;;;39.00;46.50;;;;;;5036794;28;20337;-70
2021/07/29 08:19:13;;;;;;;17.80;11.13;;;38.90;46.90;;;;;;5037016;28;20435;-71
2021/07/29 08:21:39;;;;;;;20.83;13.82;;;38.70;47.80;;;;;;5036828;28;20052;-70
2021/07/29 08:24:05;;;;;;;23.80;13.02;;;38.50;48.00;;;;;;5035288;28;20032;-70
2021/07/29 08:26:30;;;;;;;25.70;15.25;;;38.50;48.20;;;;;;5036683;28;20029;-70
2021/07/29 08:28:57;;;;;;;21.80;11.80;;;38.70;47.70;;;;;;5036885;28;20017;-70
2021/07/29 08:31:23;;;;;;;24.65;13.27;;;38.80;46.90;;;;;;5036648;28;20432;-70
2021/07/29 08:33:49;;;;;;;31.98;13.13;;;39.10;47.00;;;;;;5036385;28;20143;-70
2021/07/29 08:36:19;;;;;;;24.20;11.52;;;39.20;46.20;;;;;;5035020;28;20111;-70
2021/07/29 08:38:47;;;;;;;43.75;18.83;;;39.40;46.60;;;;;;5035160;28;20025;-71
2021/07/29 08:41:16;;;;;;;38.10;17.10;;;39.80;46.30;;;;;;5034846;28;20022;-71
2021/07/29 08:43:42;;;;;;;21.70;9.75;;;40.20;45.50;;;;;;5035295;28;20021;-70
2021/07/29 08:46:09;;;;;;;19.25;10.93;;;40.40;45.00;;;;;;5034966;28;20021;-70
2021/07/29 08:48:36;;;;;;;21.88;11.13;;;40.20;44.20;;;;;;5035200;28;20033;-70
2021/07/29 08:51:03;;;;;;;25.67;11.82;;;39.80;45.10;;;;;;5036039;28;20017;-70
2021/07/29 08:53:28;;;;;;;20.48;12.57;;;39.90;45.20;;;;;;5035825;28;20100;-70
2021/07/29 08:55:55;;;;;;;32.25;12.73;;;39.80;45.00;;;;;;5034852;28;20117;-70
2021/07/29 08:58:21;;;;;;;46.00;16.73;;;40.10;45.10;;;;;;5034802;28;20021;-70
2021/07/29 09:01:08;;;;;;;23.98;10.43;;;40.40;45.10;;;;;;5036071;28;20083;-70
2021/07/29 09:03:35;;;;;;;14.60;7.03;;;40.80;44.00;;;;;;5034592;28;20058;-70
2021/07/29 09:06:07;;;;;;;27.13;8.10;;;41.20;42.40;;;;;;5035658;28;20026;-70
2021/07/29 09:08:43;;;;;;;24.10;8.10;;;41.50;40.90;;;;;;5035235;28;20022;-70
2021/07/29 09:11:27;;;;;;;22.25;7.07;;;41.10;39.80;;;;;;5035940;28;20103;-70
2021/07/29 09:14:13;;;;;;;20.00;7.53;;;40.70;39.70;;;;;;5035161;28;20029;-70
2021/07/29 09:16:59;;;;;;;22.13;10.43;;;40.20;40.00;;;;;;5035126;28;20371;-70
2021/07/29 09:19:40;;;;;;;34.03;14.35;;;39.60;40.50;;;;;;5035559;28;20028;-70
2021/07/29 09:22:14;;;;;;;73.35;24.65;;;39.20;41.30;;;;;;5035655;28;20028;-70
2021/07/29 09:25:12;;;;;;;58.33;18.27;;;39.20;42.00;;;;;;5033868;28;20022;-71
2021/07/29 09:27:37;;;;;;;71.97;28.27;;;39.50;42.70;;;;;;5035245;28;20064;-71
2021/07/29 09:30:12;;;;;;;50.10;17.05;;;40.10;42.20;;;;;;5035201;28;20411;-70
2021/07/29 09:32:54;;;;;;;53.72;16.15;;;40.20;41.90;;;;;;5035219;28;20021;-70
2021/07/29 09:35:29;;;;;;;33.85;16.52;;;40.10;41.30;;;;;;5035167;28;20029;-71
2021/07/29 09:37:54;;;;;;;19.23;8.30;;;39.70;41.60;;;;;;5035111;28;20087;-70
2021/07/29 09:40:20;;;;;;;13.60;6.80;;;39.40;42.10;;;;;;5035238;28;20021;-70
2021/07/29 09:43:07;;;;;;;15.02;6.22;;;39.20;42.40;;;;;;5035351;28;20452;-70
2021/07/29 09:45:33;;;;;;;15.52;6.15;;;39.20;42.10;;;;;;5033885;28;20364;-71
2021/07/29 09:47:59;;;;;;;13.63;6.20;;;39.20;42.10;;;;;;5033849;28;20055;-70
2021/07/29 09:50:25;;;;;;;9.52;5.55;;;39.00;41.60;;;;;;5034093;28;20071;-70
2021/07/29 09:52:54;;;;;;;9.50;5.22;;;38.70;41.80;;;;;;5033719;28;20025;-70
2021/07/29 09:55:21;;;;;;;12.95;5.90;;;38.50;41.80;;;;;;5035010;28;20026;-70
2021/07/29 09:57:46;;;;;;;12.43;5.85;;;38.50;41.90;;;;;;5034749;28;20030;-70
2021/07/29 10:00:13;;;;;;;10.27;5.72;;;38.70;42.50;;;;;;5033385;28;20025;-70
2021/07/29 10:02:40;;;;;;;13.02;6.20;;;38.80;42.60;;;;;;5034495;28;20057;-70
2021/07/29 10:05:07;;;;;;;17.65;6.15;;;38.80;42.60;;;;;;5033582;28;20171;-70
2021/07/29 10:07:37;;;;;;;15.77;6.88;;;38.60;42.70;;;;;;5033456;28;20026;-69
2021/07/29 10:10:04;;;;;;;14.63;6.93;;;38.30;42.80;;;;;;5034637;28;20049;-69
2021/07/29 10:12:31;;;;;;;16.08;6.00;;;38.00;43.60;;;;;;5034299;28;20025;-70
2021/07/29 10:14:58;;;;;;;10.70;5.00;;;37.80;43.70;;;;;;5033323;28;20025;-70
2021/07/29 10:17:36;;;;;;;13.05;5.88;;;37.90;43.50;;;;;;5034465;28;20059;-70
2021/07/29 10:20:19;;;;;;;12.25;6.25;;;38.10;43.60;;;;;;5034189;28;20026;-70
2021/07/29 10:23:09;;;;;;;8.38;5.10;;;38.60;43.90;;;;;;5033184;28;20029;-70
2021/07/29 10:25:53;;;;;;;14.45;5.10;;;38.80;42.30;;;;;;5033879;28;20460;-70
2021/07/29 10:28:25;;;;;;;10.25;5.72;;;38.70;42.20;;;;;;5033202;28;20411;-70
2021/07/29 10:30:57;;;;;;;10.32;5.95;;;38.40;42.30;;;;;;5034614;28;20025;-70
2021/07/29 10:33:24;;;;;;;12.52;5.60;;;38.00;42.80;;;;;;5032621;28;20021;-70
2021/07/29 10:35:51;;;;;;;9.77;5.70;;;37.60;43.30;;;;;;5034306;28;20025;-70
2021/07/29 10:38:38;;;;;;;21.25;8.60;;;37.50;44.60;;;;;;5032913;28;20025;-71
2021/07/29 10:41:10;;;;;;;13.38;6.82;;;37.30;44.10;;;;;;5034064;28;20518;-71
2021/07/29 10:43:35;;;;;;;19.77;8.15;;;37.40;44.60;;;;;;5034008;28;20029;-71
2021/07/29 10:46:01;;;;;;;18.05;6.78;;;37.70;46.00;;;;;;5033787;28;20033;-71
2021/07/29 10:48:48;;;;;;;24.20;7.05;;;37.90;45.00;;;;;;5034536;28;20021;-70
2021/07/29 10:51:22;;;;;;;23.08;8.10;;;38.30;44.60;;;;;;5032702;28;20021;-70
2021/07/29 10:53:56;;;;;;;35.20;9.98;;;38.50;44.10;;;;;;5032585;28;20032;-70
2021/07/29 10:56:26;;;;;;;15.57;6.20;;;38.30;43.50;;;;;;5032610;28;20064;-71
2021/07/29 10:58:58;;;;;;;27.15;10.43;;;38.40;44.00;;;;;;5033617;28;20026;-71
2021/07/29 11:01:49;;;;;;;23.45;9.52;;;38.80;43.10;;;;;;5033740;28;20356;-71
2021/07/29 11:04:15;;;;;;;25.52;7.07;;;38.80;42.20;;;;;;5033764;28;20057;-71
2021/07/29 11:06:44;;;;;;;18.65;5.07;;;38.70;41.00;;;;;;5032432;28;20121;-71
2021/07/29 11:09:16;;;;;;;52.00;9.20;;;38.50;41.30;;;;;;5033021;28;20036;-71
2021/07/29 11:11:43;;;;;;;19.55;5.97;;;38.70;41.10;;;;;;5033630;28;20029;-71
2021/07/29 11:14:10;;;;;;;35.90;8.10;;;38.70;40.70;;;;;;5033634;28;20028;-71
2021/07/29 11:16:37;;;;;;;38.85;9.60;;;38.40;40.50;;;;;;5032294;28;20100;-71
2021/07/29 11:19:05;;;;;;;33.08;6.40;;;38.30;40.40;;;;;;5033472;28;20028;-71
2021/07/29 11:21:32;;;;;;;15.43;4.68;;;38.10;41.20;;;;;;5033627;28;20018;-71
2021/07/29 11:23:59;;;;;;;34.75;11.13;;;38.20;41.20;;;;;;5033379;28;20523;-70
2021/07/29 11:26:25;;;;;;;82.53;31.02;;;37.80;41.30;;;;;;5033690;28;20029;-70
2021/07/29 11:29:10;;;;;;;39.80;15.57;;;37.30;41.70;;;;;;5032484;28;20021;-69
2021/07/29 11:31:37;;;;;;;49.42;11.25;;;36.80;43.30;;;;;;5033289;28;20399;-70
2021/07/29 11:34:03;;;;;;;35.22;10.30;;;36.40;43.10;;;;;;5032190;28;20061;-70
2021/07/29 11:36:30;;;;;;;37.33;7.95;;;36.00;43.60;;;;;;5034696;28;20033;-70
2021/07/29 11:39:06;;;;;;;35.83;8.80;;;35.60;44.40;;;;;;5037390;28;20026;-69
2021/07/29 11:41:53;;;;;;;14.07;5.05;;;35.30;45.10;;;;;;5036517;28;20092;-69
2021/07/29 11:44:19;;;;;;;13.65;4.80;;;35.30;44.90;;;;;;5036087;28;20053;-70
2021/07/29 11:46:56;;;;;;;23.70;6.55;;;35.30;45.10;;;;;;5037449;28;20017;-69
2021/07/29 11:49:22;;;;;;;10.65;4.50;;;35.20;45.40;;;;;;5036523;28;20028;-69
2021/07/29 11:52:03;;;;;;;12.13;4.80;;;35.00;45.10;;;;;;5037123;28;20025;-69
2021/07/29 11:54:30;;;;;;;15.60;5.30;;;34.80;44.60;;;;;;5035922;28;20120;-69
2021/07/29 11:56:57;;;;;;;16.02;5.50;;;34.80;45.20;;;;;;5037208;28;20109;-69
2021/07/29 11:59:24;;;;;;;9.07;4.22;;;34.70;45.10;;;;;;5035950;28;20051;-70
2021/07/29 12:01:50;;;;;;;19.73;4.15;;;34.50;44.80;;;;;;5035681;28;20021;-69
2021/07/29 12:04:17;;;;;;;28.17;5.95;;;34.30;44.80;;;;;;5035390;28;20149;-69
2021/07/29 12:06:43;;;;;;;47.17;8.88;;;34.20;44.90;;;;;;5035785;28;20053;-70
2021/07/29 12:09:09;;;;;;;38.65;7.68;;;34.10;44.80;;;;;;5035191;28;20017;-71
2021/07/29 12:11:35;;;;;;;42.90;8.18;;;34.00;45.00;;;;;;5035969;28;20025;-69
2021/07/29 12:14:02;;;;;;;54.05;9.73;;;33.90;45.30;;;;;;5035380;28;20403;-69
2021/07/29 12:16:51;;;;;;;55.83;9.80;;;33.90;45.80;;;;;;5036817;28;20025;-69
2021/07/29 12:19:18;;;;;;;40.47;8.00;;;33.90;46.30;;;;;;5035348;28;20043;-69
2021/07/29 12:21:45;;;;;;;33.03;7.45;;;33.90;46.20;;;;;;5035383;28;20060;-69
2021/07/29 12:24:11;;;;;;;57.10;17.73;;;34.00;45.90;;;;;;5036517;28;20532;-69
2021/07/29 12:26:37;;;;;;;39.67;8.82;;;33.80;46.00;;;;;;5036727;28;20124;-69
2021/07/29 12:29:03;;;;;;;16.30;4.45;;;33.80;46.60;;;;;;5035366;28;20125;-69
2021/07/29 12:31:30;;;;;;;25.52;5.78;;;33.80;46.50;;;;;;5036276;28;20037;-69
2021/07/29 12:33:58;;;;;;;21.85;4.65;;;33.80;46.90;;;;;;5036232;28;20063;-69
2021/07/29 12:36:36;;;;;;;54.13;9.70;;;33.80;47.80;;;;;;5034861;28;20029;-70